sensor_id;sensor_type;location;lat;lon;timestamp;P1;durP1;ratioP1;P2;durP2;ratioP2
3278;SDS011;1651;50.940;6.888;2023-07-13T00:00:25;6.17;;;1.30;;
3278;SDS011;1651;50.940;6.888;2023-07-13T00:02:51;8.87;;;1.20;;
3278;SDS011;1651;50.940;6.888;2023-07-13T00:05:19;3.60;;;1.53;;
3278;SDS011;1651;50.940;6.888;2023-07-13T00:07:45;2.50;;;1.40;;
3278;SDS011;1651;50.940;6.888;2023-07-13T00:10:11;2.70;;;1.10;;
3278;SDS011;1651;50.940;6.888;2023-07-13T00:12:37;2.67;;;1.33;;
3278;SDS011;1651;50.940;6.888;2023-07-13T00:15:10;6.60;;;2.10;;
3278;SDS011;1651;50.940;6.888;2023-07-13T00:17:37;1.60;;;1.20;;
3278;SDS011;1651;50.940;6.888;2023-07-13T00:20:04;1.60;;;1.20;;
3278;SDS011;1651;50.940;6.888;2023-07-13T00:22:30;1.93;;;1.30;;
3278;SDS011;1651;50.940;6.888;2023-07-13T00:24:56;3.87;;;1.20;;
3278;SDS011;1651;50.940;6.888;2023-07-13T00:27:22;2.50;;;1.20;;
3278;SDS011;1651;50.940;6.888;2023-07-13T00:29:51;2.53;;;1.20;;
3278;SDS011;1651;50.940;6.888;2023-07-13T00:32:18;4.03;;;1.40;;
3278;SDS011;1651;50.940;6.888;2023-07-13T00:34:44;4.57;;;2.13;;
3278;SDS011;1651;50.940;6.888;2023-07-13T00:37:10;3.17;;;1.23;;
3278;SDS011;1651;50.940;6.888;2023-07-13T00:39:38;5.33;;;1.53;;
3278;SDS011;1651;50.940;6.888;2023-07-13T00:42:04;3.30;;;1.60;;
3278;SDS011;1651;50.940;6.888;2023-07-13T00:44:30;3.27;;;1.20;;
3278;SDS011;1651;50.940;6.888;2023-07-13T00:46:58;2.80;;;1.20;;
3278;SDS011;1651;50.940;6.888;2023-07-13T00:49:25;6.87;;;2.13;;
3278;SDS011;1651;50.940;6.888;2023-07-13T00:52:06;2.17;;;1.40;;
3278;SDS011;1651;50.940;6.888;2023-07-13T00:54:40;5.30;;;2.43;;
3278;SDS011;1651;50.940;6.888;2023-07-13T00:57:08;2.97;;;1.60;;
3278;SDS011;1651;50.940;6.888;2023-07-13T00:59:35;3.77;;;1.60;;
3278;SDS011;1651;50.940;6.888;2023-07-13T01:02:02;5.33;;;1.40;;
3278;SDS011;1651;50.940;6.888;2023-07-13T01:04:28;4.43;;;1.47;;
3278;SDS011;1651;50.940;6.888;2023-07-13T01:06:55;3.60;;;1.53;;
3278;SDS011;1651;50.940;6.888;2023-07-13T01:09:21;2.37;;;1.47;;
3278;SDS011;1651;50.940;6.888;2023-07-13T01:11:48;4.80;;;2.23;;
3278;SDS011;1651;50.940;6.888;2023-07-13T01:14:14;4.93;;;1.77;;
3278;SDS011;1651;50.940;6.888;2023-07-13T01:16:43;4.60;;;1.63;;
3278;SDS011;1651;50.940;6.888;2023-07-13T01:21:49;6.83;;;1.87;;
3278;SDS011;1651;50.940;6.888;2023-07-13T01:24:15;10.60;;;1.97;;
3278;SDS011;1651;50.940;6.888;2023-07-13T01:26:41;8.07;;;1.30;;
3278;SDS011;1651;50.940;6.888;2023-07-13T01:29:07;3.47;;;1.33;;
3278;SDS011;1651;50.940;6.888;2023-07-13T01:31:33;2.20;;;1.17;;
3278;SDS011;1651;50.940;6.888;2023-07-13T01:34:00;2.00;;;1.40;;
3278;SDS011;1651;50.940;6.888;2023-07-13T01:36:26;4.43;;;1.60;;
3278;SDS011;1651;50.940;6.888;2023-07-13T01:38:53;4.70;;;1.63;;
3278;SDS011;1651;50.940;6.888;2023-07-13T01:41:19;3.00;;;1.60;;
3278;SDS011;1651;50.940;6.888;2023-07-13T01:43:46;9.17;;;1.70;;
3278;SDS011;1651;50.940;6.888;2023-07-13T01:46:12;8.27;;;1.87;;
3278;SDS011;1651;50.940;6.888;2023-07-13T01:48:39;3.20;;;1.60;;
3278;SDS011;1651;50.940;6.888;2023-07-13T01:51:05;2.87;;;1.80;;
3278;SDS011;1651;50.940;6.888;2023-07-13T01:53:31;3.17;;;1.70;;
3278;SDS011;1651;50.940;6.888;2023-07-13T01:55:57;5.17;;;1.30;;
3278;SDS011;1651;50.940;6.888;2023-07-13T01:58:23;2.50;;;1.20;;
3278;SDS011;1651;50.940;6.888;2023-07-13T02:00:49;2.80;;;1.80;;
3278;SDS011;1651;50.940;6.888;2023-07-13T02:03:15;2.07;;;1.10;;
3278;SDS011;1651;50.940;6.888;2023-07-13T02:05:43;2.30;;;1.00;;
3278;SDS011;1651;50.940;6.888;2023-07-13T02:08:09;2.80;;;1.30;;
3278;SDS011;1651;50.940;6.888;2023-07-13T02:10:36;4.33;;;1.27;;
3278;SDS011;1651;50.940;6.888;2023-07-13T02:13:06;1.77;;;1.40;;
3278;SDS011;1651;50.940;6.888;2023-07-13T02:15:32;3.37;;;1.23;;
3278;SDS011;1651;50.940;6.888;2023-07-13T02:17:58;5.10;;;1.60;;
3278;SDS011;1651;50.940;6.888;2023-07-13T02:20:24;1.73;;;1.20;;
3278;SDS011;1651;50.940;6.888;2023-07-13T02:22:51;6.10;;;1.53;;
3278;SDS011;1651;50.940;6.888;2023-07-13T02:25:17;3.57;;;1.60;;
3278;SDS011;1651;50.940;6.888;2023-07-13T02:27:43;3.10;;;1.50;;
3278;SDS011;1651;50.940;6.888;2023-07-13T02:30:10;2.90;;;1.50;;
3278;SDS011;1651;50.940;6.888;2023-07-13T02:32:36;2.90;;;1.20;;
3278;SDS011;1651;50.940;6.888;2023-07-13T02:35:02;5.33;;;1.93;;
3278;SDS011;1651;50.940;6.888;2023-07-13T02:37:28;3.07;;;1.37;;
3278;SDS011;1651;50.940;6.888;2023-07-13T02:39:54;2.77;;;1.10;;
3278;SDS011;1651;50.940;6.888;2023-07-13T02:42:21;4.20;;;1.30;;
3278;SDS011;1651;50.940;6.888;2023-07-13T02:44:47;2.13;;;1.60;;
3278;SDS011;1651;50.940;6.888;2023-07-13T02:47:15;1.77;;;1.40;;
3278;SDS011;1651;50.940;6.888;2023-07-13T02:49:41;2.47;;;1.50;;
3278;SDS011;1651;50.940;6.888;2023-07-13T02:52:09;3.63;;;1.40;;
3278;SDS011;1651;50.940;6.888;2023-07-13T02:54:35;3.27;;;1.73;;
3278;SDS011;1651;50.940;6.888;2023-07-13T02:57:02;3.00;;;1.50;;
3278;SDS011;1651;50.940;6.888;2023-07-13T02:59:28;3.23;;;1.70;;
3278;SDS011;1651;50.940;6.888;2023-07-13T03:01:54;2.47;;;1.23;;
3278;SDS011;1651;50.940;6.888;2023-07-13T03:04:20;3.27;;;1.50;;
3278;SDS011;1651;50.940;6.888;2023-07-13T03:06:46;3.50;;;1.73;;
3278;SDS011;1651;50.940;6.888;2023-07-13T03:09:12;8.03;;;1.30;;
3278;SDS011;1651;50.940;6.888;2023-07-13T03:11:38;5.03;;;1.80;;
3278;SDS011;1651;50.940;6.888;2023-07-13T03:14:04;2.17;;;1.27;;
3278;SDS011;1651;50.940;6.888;2023-07-13T03:16:30;2.77;;;1.43;;
3278;SDS011;1651;50.940;6.888;2023-07-13T03:18:57;2.90;;;1.53;;
3278;SDS011;1651;50.940;6.888;2023-07-13T03:21:23;1.73;;;1.33;;
3278;SDS011;1651;50.940;6.888;2023-07-13T03:23:49;2.50;;;1.20;;
3278;SDS011;1651;50.940;6.888;2023-07-13T03:26:16;1.57;;;1.40;;
3278;SDS011;1651;50.940;6.888;2023-07-13T03:28:44;1.93;;;1.43;;
3278;SDS011;1651;50.940;6.888;2023-07-13T03:31:11;6.37;;;1.70;;
3278;SDS011;1651;50.940;6.888;2023-07-13T03:33:38;4.50;;;1.50;;
3278;SDS011;1651;50.940;6.888;2023-07-13T03:36:04;3.73;;;1.63;;
3278;SDS011;1651;50.940;6.888;2023-07-13T03:38:31;6.40;;;1.40;;
3278;SDS011;1651;50.940;6.888;2023-07-13T03:40:57;5.33;;;1.40;;
3278;SDS011;1651;50.940;6.888;2023-07-13T03:43:23;2.00;;;1.37;;
3278;SDS011;1651;50.940;6.888;2023-07-13T03:45:49;4.07;;;1.67;;
3278;SDS011;1651;50.940;6.888;2023-07-13T03:48:15;4.00;;;1.60;;
3278;SDS011;1651;50.940;6.888;2023-07-13T03:50:41;1.73;;;1.37;;
3278;SDS011;1651;50.940;6.888;2023-07-13T03:53:07;3.90;;;1.57;;
3278;SDS011;1651;50.940;6.888;2023-07-13T03:55:33;2.07;;;1.20;;
3278;SDS011;1651;50.940;6.888;2023-07-13T03:58:00;3.50;;;1.80;;
3278;SDS011;1651;50.940;6.888;2023-07-13T04:00:27;2.03;;;1.30;;
3278;SDS011;1651;50.940;6.888;2023-07-13T04:02:53;4.30;;;1.57;;
3278;SDS011;1651;50.940;6.888;2023-07-13T04:05:19;1.87;;;1.40;;
3278;SDS011;1651;50.940;6.888;2023-07-13T04:07:45;1.50;;;1.20;;
3278;SDS011;1651;50.940;6.888;2023-07-13T04:10:11;2.40;;;1.30;;
3278;SDS011;1651;50.940;6.888;2023-07-13T04:12:37;2.73;;;1.70;;
3278;SDS011;1651;50.940;6.888;2023-07-13T04:15:03;2.10;;;1.60;;
3278;SDS011;1651;50.940;6.888;2023-07-13T04:17:30;2.83;;;1.63;;
3278;SDS011;1651;50.940;6.888;2023-07-13T04:19:56;2.17;;;1.60;;
3278;SDS011;1651;50.940;6.888;2023-07-13T04:22:22;9.03;;;1.70;;
3278;SDS011;1651;50.940;6.888;2023-07-13T04:24:47;6.03;;;1.60;;
3278;SDS011;1651;50.940;6.888;2023-07-13T04:27:17;2.07;;;1.57;;
3278;SDS011;1651;50.940;6.888;2023-07-13T04:29:43;4.17;;;1.47;;
3278;SDS011;1651;50.940;6.888;2023-07-13T04:32:09;2.60;;;1.60;;
3278;SDS011;1651;50.940;6.888;2023-07-13T04:34:35;3.17;;;1.43;;
3278;SDS011;1651;50.940;6.888;2023-07-13T04:37:01;4.70;;;1.60;;
3278;SDS011;1651;50.940;6.888;2023-07-13T04:39:28;3.53;;;1.50;;
3278;SDS011;1651;50.940;6.888;2023-07-13T04:41:54;3.67;;;1.30;;
3278;SDS011;1651;50.940;6.888;2023-07-13T04:44:20;3.07;;;2.77;;
3278;SDS011;1651;50.940;6.888;2023-07-13T04:46:46;3.63;;;1.47;;
3278;SDS011;1651;50.940;6.888;2023-07-13T04:49:12;14.43;;;2.77;;
3278;SDS011;1651;50.940;6.888;2023-07-13T04:51:38;5.60;;;1.87;;
3278;SDS011;1651;50.940;6.888;2023-07-13T04:54:04;3.40;;;1.60;;
3278;SDS011;1651;50.940;6.888;2023-07-13T04:56:33;4.17;;;1.60;;
3278;SDS011;1651;50.940;6.888;2023-07-13T04:59:00;3.60;;;2.00;;
3278;SDS011;1651;50.940;6.888;2023-07-13T05:01:25;2.90;;;1.90;;
3278;SDS011;1651;50.940;6.888;2023-07-13T05:03:52;5.20;;;1.60;;
3278;SDS011;1651;50.940;6.888;2023-07-13T05:06:21;4.80;;;2.17;;
3278;SDS011;1651;50.940;6.888;2023-07-13T05:08:48;5.93;;;1.90;;
3278;SDS011;1651;50.940;6.888;2023-07-13T05:11:14;3.93;;;1.60;;
3278;SDS011;1651;50.940;6.888;2023-07-13T05:13:40;4.27;;;2.93;;
3278;SDS011;1651;50.940;6.888;2023-07-13T05:16:07;4.63;;;1.83;;
3278;SDS011;1651;50.940;6.888;2023-07-13T05:18:33;4.87;;;1.70;;
3278;SDS011;1651;50.940;6.888;2023-07-13T05:21:07;13.43;;;1.70;;
3278;SDS011;1651;50.940;6.888;2023-07-13T05:23:34;5.00;;;1.47;;
3278;SDS011;1651;50.940;6.888;2023-07-13T05:26:01;6.00;;;1.50;;
3278;SDS011;1651;50.940;6.888;2023-07-13T05:28:29;3.90;;;1.53;;
3278;SDS011;1651;50.940;6.888;2023-07-13T05:30:56;4.80;;;1.67;;
3278;SDS011;1651;50.940;6.888;2023-07-13T05:33:22;6.33;;;1.70;;
3278;SDS011;1651;50.940;6.888;2023-07-13T05:35:48;3.73;;;1.80;;
3278;SDS011;1651;50.940;6.888;2023-07-13T05:38:16;3.87;;;1.87;;
3278;SDS011;1651;50.940;6.888;2023-07-13T05:40:45;5.03;;;1.30;;
3278;SDS011;1651;50.940;6.888;2023-07-13T05:43:12;4.30;;;1.37;;
3278;SDS011;1651;50.940;6.888;2023-07-13T05:45:40;2.87;;;1.20;;
3278;SDS011;1651;50.940;6.888;2023-07-13T05:48:06;4.80;;;1.33;;
3278;SDS011;1651;50.940;6.888;2023-07-13T05:50:32;4.43;;;1.60;;
3278;SDS011;1651;50.940;6.888;2023-07-13T05:52:58;6.70;;;1.60;;
3278;SDS011;1651;50.940;6.888;2023-07-13T05:55:25;2.77;;;1.60;;
3278;SDS011;1651;50.940;6.888;2023-07-13T05:57:51;3.43;;;1.37;;
3278;SDS011;1651;50.940;6.888;2023-07-13T06:00:17;2.70;;;1.40;;
3278;SDS011;1651;50.940;6.888;2023-07-13T06:02:43;4.90;;;1.57;;
3278;SDS011;1651;50.940;6.888;2023-07-13T06:05:09;4.30;;;1.40;;
3278;SDS011;1651;50.940;6.888;2023-07-13T06:07:36;3.10;;;1.40;;
3278;SDS011;1651;50.940;6.888;2023-07-13T06:10:02;3.63;;;1.40;;
3278;SDS011;1651;50.940;6.888;2023-07-13T06:12:28;4.47;;;1.63;;
3278;SDS011;1651;50.940;6.888;2023-07-13T06:14:54;2.67;;;1.33;;
3278;SDS011;1651;50.940;6.888;2023-07-13T06:17:20;3.90;;;1.30;;
3278;SDS011;1651;50.940;6.888;2023-07-13T06:19:46;6.40;;;1.80;;
3278;SDS011;1651;50.940;6.888;2023-07-13T06:22:12;2.93;;;1.70;;
3278;SDS011;1651;50.940;6.888;2023-07-13T06:24:38;2.63;;;1.23;;
3278;SDS011;1651;50.940;6.888;2023-07-13T06:27:04;2.23;;;1.53;;
3278;SDS011;1651;50.940;6.888;2023-07-13T06:29:30;6.10;;;1.60;;
3278;SDS011;1651;50.940;6.888;2023-07-13T06:31:56;2.83;;;1.20;;
3278;SDS011;1651;50.940;6.888;2023-07-13T06:34:22;4.97;;;1.30;;
3278;SDS011;1651;50.940;6.888;2023-07-13T06:36:48;2.50;;;1.30;;
3278;SDS011;1651;50.940;6.888;2023-07-13T06:39:15;3.73;;;1.57;;
3278;SDS011;1651;50.940;6.888;2023-07-13T06:41:41;6.30;;;1.57;;
3278;SDS011;1651;50.940;6.888;2023-07-13T06:44:07;4.67;;;2.33;;
3278;SDS011;1651;50.940;6.888;2023-07-13T06:46:35;6.30;;;2.30;;
3278;SDS011;1651;50.940;6.888;2023-07-13T06:49:02;2.80;;;1.40;;
3278;SDS011;1651;50.940;6.888;2023-07-13T06:51:28;2.80;;;1.43;;
3278;SDS011;1651;50.940;6.888;2023-07-13T06:53:55;5.13;;;1.57;;
3278;SDS011;1651;50.940;6.888;2023-07-13T06:56:21;3.57;;;1.60;;
3278;SDS011;1651;50.940;6.888;2023-07-13T06:58:47;3.60;;;1.50;;
3278;SDS011;1651;50.940;6.888;2023-07-13T07:01:13;2.90;;;1.30;;
3278;SDS011;1651;50.940;6.888;2023-07-13T07:03:39;4.70;;;1.40;;
3278;SDS011;1651;50.940;6.888;2023-07-13T07:06:12;2.73;;;1.47;;
3278;SDS011;1651;50.940;6.888;2023-07-13T07:08:40;4.00;;;1.97;;
3278;SDS011;1651;50.940;6.888;2023-07-13T07:11:08;5.80;;;1.70;;
3278;SDS011;1651;50.940;6.888;2023-07-13T07:13:34;4.10;;;1.50;;
3278;SDS011;1651;50.940;6.888;2023-07-13T07:16:00;7.37;;;1.80;;
3278;SDS011;1651;50.940;6.888;2023-07-13T07:18:26;5.83;;;1.60;;
3278;SDS011;1651;50.940;6.888;2023-07-13T07:20:52;6.20;;;2.20;;
3278;SDS011;1651;50.940;6.888;2023-07-13T07:23:18;3.53;;;1.80;;
3278;SDS011;1651;50.940;6.888;2023-07-13T07:25:44;3.30;;;1.53;;
3278;SDS011;1651;50.940;6.888;2023-07-13T07:28:10;4.43;;;1.70;;
3278;SDS011;1651;50.940;6.888;2023-07-13T07:30:37;3.73;;;1.57;;
3278;SDS011;1651;50.940;6.888;2023-07-13T07:33:03;5.07;;;1.27;;
3278;SDS011;1651;50.940;6.888;2023-07-13T07:35:29;2.93;;;1.67;;
3278;SDS011;1651;50.940;6.888;2023-07-13T07:37:55;2.57;;;1.20;;
3278;SDS011;1651;50.940;6.888;2023-07-13T07:40:21;3.73;;;1.77;;
3278;SDS011;1651;50.940;6.888;2023-07-13T07:42:47;5.27;;;1.83;;
3278;SDS011;1651;50.940;6.888;2023-07-13T07:45:13;5.37;;;1.80;;
3278;SDS011;1651;50.940;6.888;2023-07-13T07:47:39;3.40;;;1.60;;
3278;SDS011;1651;50.940;6.888;2023-07-13T07:50:06;5.13;;;1.80;;
3278;SDS011;1651;50.940;6.888;2023-07-13T07:52:32;3.77;;;1.83;;
3278;SDS011;1651;50.940;6.888;2023-07-13T07:54:59;5.20;;;1.73;;
3278;SDS011;1651;50.940;6.888;2023-07-13T07:57:25;4.27;;;1.70;;
3278;SDS011;1651;50.940;6.888;2023-07-13T07:59:51;5.53;;;2.00;;
3278;SDS011;1651;50.940;6.888;2023-07-13T08:02:17;4.47;;;1.57;;
3278;SDS011;1651;50.940;6.888;2023-07-13T08:04:43;3.53;;;2.00;;
3278;SDS011;1651;50.940;6.888;2023-07-13T08:07:09;8.83;;;1.97;;
3278;SDS011;1651;50.940;6.888;2023-07-13T08:09:35;3.00;;;1.60;;
3278;SDS011;1651;50.940;6.888;2023-07-13T08:12:01;4.60;;;2.07;;
3278;SDS011;1651;50.940;6.888;2023-07-13T08:14:28;4.03;;;1.70;;
3278;SDS011;1651;50.940;6.888;2023-07-13T08:16:54;5.93;;;2.93;;
3278;SDS011;1651;50.940;6.888;2023-07-13T08:19:20;7.27;;;1.60;;
3278;SDS011;1651;50.940;6.888;2023-07-13T08:21:46;4.37;;;2.10;;
3278;SDS011;1651;50.940;6.888;2023-07-13T08:24:13;5.40;;;1.60;;
3278;SDS011;1651;50.940;6.888;2023-07-13T08:26:40;2.80;;;1.60;;
3278;SDS011;1651;50.940;6.888;2023-07-13T08:29:06;4.20;;;1.67;;
3278;SDS011;1651;50.940;6.888;2023-07-13T08:31:32;4.17;;;1.83;;
3278;SDS011;1651;50.940;6.888;2023-07-13T08:33:58;8.40;;;1.93;;
3278;SDS011;1651;50.940;6.888;2023-07-13T08:36:25;7.40;;;2.10;;
3278;SDS011;1651;50.940;6.888;2023-07-13T08:38:52;4.40;;;2.03;;
3278;SDS011;1651;50.940;6.888;2023-07-13T08:41:18;4.70;;;1.70;;
3278;SDS011;1651;50.940;6.888;2023-07-13T08:43:45;7.30;;;1.93;;
3278;SDS011;1651;50.940;6.888;2023-07-13T08:46:28;5.13;;;2.10;;
3278;SDS011;1651;50.940;6.888;2023-07-13T08:49:03;4.50;;;1.40;;
3278;SDS011;1651;50.940;6.888;2023-07-13T08:54:00;8.20;;;2.60;;
3278;SDS011;1651;50.940;6.888;2023-07-13T08:56:27;6.13;;;1.80;;
3278;SDS011;1651;50.940;6.888;2023-07-13T08:58:58;7.90;;;2.17;;
3278;SDS011;1651;50.940;6.888;2023-07-13T09:01:28;5.57;;;1.80;;
3278;SDS011;1651;50.940;6.888;2023-07-13T09:06:29;8.10;;;2.23;;
3278;SDS011;1651;50.940;6.888;2023-07-13T09:09:02;8.00;;;1.80;;
3278;SDS011;1651;50.940;6.888;2023-07-13T09:16:28;5.63;;;1.60;;
3278;SDS011;1651;50.940;6.888;2023-07-13T09:18:56;3.10;;;1.80;;
3278;SDS011;1651;50.940;6.888;2023-07-13T09:21:28;8.37;;;1.77;;
3278;SDS011;1651;50.940;6.888;2023-07-13T09:23:59;4.73;;;1.40;;
3278;SDS011;1651;50.940;6.888;2023-07-13T09:26:27;3.90;;;1.93;;
3278;SDS011;1651;50.940;6.888;2023-07-13T09:28:58;3.50;;;1.40;;
3278;SDS011;1651;50.940;6.888;2023-07-13T09:31:39;2.40;;;1.40;;
3278;SDS011;1651;50.940;6.888;2023-07-13T09:34:10;3.87;;;1.93;;
3278;SDS011;1651;50.940;6.888;2023-07-13T09:36:36;6.60;;;1.90;;
3278;SDS011;1651;50.940;6.888;2023-07-13T09:39:04;2.43;;;1.60;;
3278;SDS011;1651;50.940;6.888;2023-07-13T09:49:42;2.73;;;1.63;;
3278;SDS011;1651;50.940;6.888;2023-07-13T09:52:11;5.40;;;1.90;;
3278;SDS011;1651;50.940;6.888;2023-07-13T09:54:39;3.70;;;1.57;;
3278;SDS011;1651;50.940;6.888;2023-07-13T09:57:14;1.83;;;1.53;;
3278;SDS011;1651;50.940;6.888;2023-07-13T09:59:43;3.90;;;1.23;;
3278;SDS011;1651;50.940;6.888;2023-07-13T10:05:13;2.90;;;1.20;;
3278;SDS011;1651;50.940;6.888;2023-07-13T10:07:42;9.57;;;2.10;;
3278;SDS011;1651;50.940;6.888;2023-07-13T10:10:16;3.50;;;1.30;;
3278;SDS011;1651;50.940;6.888;2023-07-13T10:12:42;2.40;;;1.10;;
3278;SDS011;1651;50.940;6.888;2023-07-13T10:15:22;4.10;;;1.70;;
3278;SDS011;1651;50.940;6.888;2023-07-13T10:17:49;2.87;;;1.43;;
3278;SDS011;1651;50.940;6.888;2023-07-13T10:20:16;2.90;;;1.30;;
3278;SDS011;1651;50.940;6.888;2023-07-13T10:25:13;3.00;;;1.40;;
3278;SDS011;1651;50.940;6.888;2023-07-13T10:27:41;6.93;;;2.00;;
3278;SDS011;1651;50.940;6.888;2023-07-13T10:30:23;4.47;;;1.40;;
3278;SDS011;1651;50.940;6.888;2023-07-13T10:32:52;2.93;;;1.30;;
3278;SDS011;1651;50.940;6.888;2023-07-13T10:35:19;3.63;;;1.43;;
3278;SDS011;1651;50.940;6.888;2023-07-13T10:37:55;3.00;;;1.00;;
3278;SDS011;1651;50.940;6.888;2023-07-13T10:40:27;4.80;;;1.33;;
3278;SDS011;1651;50.940;6.888;2023-07-13T10:42:55;4.13;;;1.70;;
3278;SDS011;1651;50.940;6.888;2023-07-13T10:45:24;2.60;;;1.57;;
3278;SDS011;1651;50.940;6.888;2023-07-13T10:47:51;3.20;;;1.53;;
3278;SDS011;1651;50.940;6.888;2023-07-13T10:50:21;5.20;;;2.23;;
3278;SDS011;1651;50.940;6.888;2023-07-13T10:52:49;2.80;;;1.50;;
3278;SDS011;1651;50.940;6.888;2023-07-13T10:55:35;2.60;;;1.57;;
3278;SDS011;1651;50.940;6.888;2023-07-13T10:58:03;3.47;;;1.33;;
3278;SDS011;1651;50.940;6.888;2023-07-13T11:00:47;2.93;;;1.47;;
3278;SDS011;1651;50.940;6.888;2023-07-13T11:03:15;3.37;;;1.47;;
3278;SDS011;1651;50.940;6.888;2023-07-13T11:05:43;2.20;;;1.33;;
3278;SDS011;1651;50.940;6.888;2023-07-13T11:08:13;3.30;;;1.53;;
3278;SDS011;1651;50.940;6.888;2023-07-13T11:10:55;2.23;;;1.73;;
3278;SDS011;1651;50.940;6.888;2023-07-13T11:13:36;4.33;;;1.83;;
3278;SDS011;1651;50.940;6.888;2023-07-13T11:16:12;2.50;;;1.50;;
3278;SDS011;1651;50.940;6.888;2023-07-13T11:18:38;3.23;;;1.63;;
3278;SDS011;1651;50.940;6.888;2023-07-13T11:24:16;2.50;;;1.50;;
3278;SDS011;1651;50.940;6.888;2023-07-13T11:31:57;2.00;;;1.80;;
3278;SDS011;1651;50.940;6.888;2023-07-13T11:34:27;2.57;;;1.57;;
3278;SDS011;1651;50.940;6.888;2023-07-13T11:36:56;2.03;;;1.17;;
3278;SDS011;1651;50.940;6.888;2023-07-13T11:41:56;3.73;;;1.33;;
3278;SDS011;1651;50.940;6.888;2023-07-13T11:44:26;2.20;;;1.30;;
3278;SDS011;1651;50.940;6.888;2023-07-13T11:46:53;2.20;;;1.53;;
3278;SDS011;1651;50.940;6.888;2023-07-13T11:49:21;5.37;;;1.70;;
3278;SDS011;1651;50.940;6.888;2023-07-13T11:51:47;2.27;;;1.90;;
3278;SDS011;1651;50.940;6.888;2023-07-13T11:56:44;7.23;;;2.00;;
3278;SDS011;1651;50.940;6.888;2023-07-13T11:59:12;3.90;;;1.43;;
3278;SDS011;1651;50.940;6.888;2023-07-13T12:01:43;3.00;;;1.50;;
3278;SDS011;1651;50.940;6.888;2023-07-13T12:04:17;3.33;;;1.93;;
3278;SDS011;1651;50.940;6.888;2023-07-13T12:06:46;3.93;;;1.63;;
3278;SDS011;1651;50.940;6.888;2023-07-13T12:09:14;6.30;;;1.70;;
3278;SDS011;1651;50.940;6.888;2023-07-13T12:11:45;4.30;;;1.90;;
3278;SDS011;1651;50.940;6.888;2023-07-13T12:14:14;4.57;;;1.53;;
3278;SDS011;1651;50.940;6.888;2023-07-13T12:16:43;6.23;;;1.90;;
3278;SDS011;1651;50.940;6.888;2023-07-13T12:19:14;2.87;;;1.60;;
3278;SDS011;1651;50.940;6.888;2023-07-13T12:21:42;2.73;;;1.50;;
3278;SDS011;1651;50.940;6.888;2023-07-13T12:24:17;12.30;;;2.83;;
3278;SDS011;1651;50.940;6.888;2023-07-13T12:29:16;13.40;;;10.00;;
3278;SDS011;1651;50.940;6.888;2023-07-13T12:31:43;20.80;;;14.67;;
3278;SDS011;1651;50.940;6.888;2023-07-13T12:34:15;12.53;;;7.90;;
3278;SDS011;1651;50.940;6.888;2023-07-13T12:41:51;9.43;;;7.07;;
3278;SDS011;1651;50.940;6.888;2023-07-13T12:44:18;11.90;;;5.20;;
3278;SDS011;1651;50.940;6.888;2023-07-13T12:46:55;4.30;;;2.77;;
3278;SDS011;1651;50.940;6.888;2023-07-13T12:49:23;3.83;;;2.90;;
3278;SDS011;1651;50.940;6.888;2023-07-13T12:51:50;7.07;;;2.90;;
3278;SDS011;1651;50.940;6.888;2023-07-13T12:54:17;2.47;;;2.07;;
3278;SDS011;1651;50.940;6.888;2023-07-13T12:56:44;4.07;;;2.10;;
3278;SDS011;1651;50.940;6.888;2023-07-13T12:59:15;3.53;;;2.40;;
3278;SDS011;1651;50.940;6.888;2023-07-13T13:01:42;3.50;;;1.63;;
3278;SDS011;1651;50.940;6.888;2023-07-13T13:04:08;4.10;;;1.43;;
3278;SDS011;1651;50.940;6.888;2023-07-13T13:06:36;4.03;;;1.60;;
3278;SDS011;1651;50.940;6.888;2023-07-13T13:09:02;3.40;;;1.70;;
3278;SDS011;1651;50.940;6.888;2023-07-13T13:11:29;3.53;;;1.50;;
3278;SDS011;1651;50.940;6.888;2023-07-13T13:13:55;2.03;;;1.83;;
3278;SDS011;1651;50.940;6.888;2023-07-13T13:16:31;4.30;;;1.50;;
3278;SDS011;1651;50.940;6.888;2023-07-13T13:19:43;5.60;;;2.03;;
3278;SDS011;1651;50.940;6.888;2023-07-13T13:21:46;4.03;;;1.77;;
3278;SDS011;1651;50.940;6.888;2023-07-13T13:24:17;2.40;;;1.50;;
3278;SDS011;1651;50.940;6.888;2023-07-13T13:26:45;2.17;;;1.30;;
3278;SDS011;1651;50.940;6.888;2023-07-13T13:29:16;3.70;;;1.47;;
3278;SDS011;1651;50.940;6.888;2023-07-13T13:31:44;2.83;;;1.20;;
3278;SDS011;1651;50.940;6.888;2023-07-13T13:34:11;3.37;;;1.27;;
3278;SDS011;1651;50.940;6.888;2023-07-13T13:39:34;3.53;;;1.23;;
3278;SDS011;1651;50.940;6.888;2023-07-13T13:45:38;4.90;;;1.53;;
3278;SDS011;1651;50.940;6.888;2023-07-13T13:48:04;1.93;;;1.40;;
3278;SDS011;1651;50.940;6.888;2023-07-13T13:50:31;5.43;;;1.70;;
3278;SDS011;1651;50.940;6.888;2023-07-13T13:52:57;4.10;;;1.50;;
3278;SDS011;1651;50.940;6.888;2023-07-13T13:55:23;2.50;;;1.37;;
3278;SDS011;1651;50.940;6.888;2023-07-13T13:57:49;1.43;;;1.33;;
3278;SDS011;1651;50.940;6.888;2023-07-13T14:00:16;3.50;;;1.50;;
3278;SDS011;1651;50.940;6.888;2023-07-13T14:02:45;4.23;;;1.37;;
3278;SDS011;1651;50.940;6.888;2023-07-13T14:05:19;3.27;;;1.20;;
3278;SDS011;1651;50.940;6.888;2023-07-13T14:07:47;2.17;;;1.70;;
3278;SDS011;1651;50.940;6.888;2023-07-13T14:10:14;3.10;;;1.60;;
3278;SDS011;1651;50.940;6.888;2023-07-13T14:12:44;3.67;;;1.53;;
3278;SDS011;1651;50.940;6.888;2023-07-13T14:15:20;2.33;;;1.33;;
3278;SDS011;1651;50.940;6.888;2023-07-13T14:17:46;1.83;;;1.20;;
3278;SDS011;1651;50.940;6.888;2023-07-13T14:20:16;2.70;;;1.37;;
3278;SDS011;1651;50.940;6.888;2023-07-13T14:22:43;3.13;;;1.60;;
3278;SDS011;1651;50.940;6.888;2023-07-13T14:25:10;2.73;;;1.50;;
3278;SDS011;1651;50.940;6.888;2023-07-13T14:27:37;2.20;;;1.20;;
3278;SDS011;1651;50.940;6.888;2023-07-13T14:30:03;1.90;;;1.70;;
3278;SDS011;1651;50.940;6.888;2023-07-13T14:32:30;3.20;;;1.40;;
3278;SDS011;1651;50.940;6.888;2023-07-13T14:34:56;4.10;;;1.40;;
3278;SDS011;1651;50.940;6.888;2023-07-13T14:37:22;2.80;;;1.40;;
3278;SDS011;1651;50.940;6.888;2023-07-13T14:39:48;2.77;;;1.30;;
3278;SDS011;1651;50.940;6.888;2023-07-13T14:42:16;2.40;;;1.10;;
3278;SDS011;1651;50.940;6.888;2023-07-13T14:44:42;3.93;;;1.40;;
3278;SDS011;1651;50.940;6.888;2023-07-13T14:47:08;4.47;;;1.17;;
3278;SDS011;1651;50.940;6.888;2023-07-13T14:49:35;1.90;;;1.40;;
3278;SDS011;1651;50.940;6.888;2023-07-13T14:54:37;2.43;;;1.40;;
3278;SDS011;1651;50.940;6.888;2023-07-13T14:57:08;2.50;;;1.20;;
3278;SDS011;1651;50.940;6.888;2023-07-13T14:59:34;4.47;;;2.00;;
3278;SDS011;1651;50.940;6.888;2023-07-13T15:02:00;5.77;;;2.57;;
3278;SDS011;1651;50.940;6.888;2023-07-13T15:04:26;2.50;;;1.30;;
3278;SDS011;1651;50.940;6.888;2023-07-13T15:06:56;2.40;;;1.53;;
3278;SDS011;1651;50.940;6.888;2023-07-13T15:09:23;3.17;;;1.73;;
3278;SDS011;1651;50.940;6.888;2023-07-13T15:11:51;2.00;;;1.30;;
3278;SDS011;1651;50.940;6.888;2023-07-13T15:14:17;1.53;;;1.30;;
3278;SDS011;1651;50.940;6.888;2023-07-13T15:16:43;1.27;;;1.17;;
3278;SDS011;1651;50.940;6.888;2023-07-13T15:19:10;3.87;;;1.90;;
3278;SDS011;1651;50.940;6.888;2023-07-13T15:21:36;2.57;;;1.27;;
3278;SDS011;1651;50.940;6.888;2023-07-13T15:24:02;1.47;;;1.30;;
3278;SDS011;1651;50.940;6.888;2023-07-13T15:26:28;2.83;;;1.17;;
3278;SDS011;1651;50.940;6.888;2023-07-13T15:28:55;3.57;;;1.40;;
3278;SDS011;1651;50.940;6.888;2023-07-13T15:31:22;3.53;;;1.40;;
3278;SDS011;1651;50.940;6.888;2023-07-13T15:33:49;1.40;;;1.20;;
3278;SDS011;1651;50.940;6.888;2023-07-13T15:36:17;2.13;;;1.80;;
3278;SDS011;1651;50.940;6.888;2023-07-13T15:38:43;3.20;;;1.40;;
3278;SDS011;1651;50.940;6.888;2023-07-13T15:41:31;4.37;;;1.50;;
3278;SDS011;1651;50.940;6.888;2023-07-13T15:43:57;4.37;;;1.73;;
3278;SDS011;1651;50.940;6.888;2023-07-13T15:46:23;2.87;;;1.50;;
3278;SDS011;1651;50.940;6.888;2023-07-13T15:48:50;1.93;;;1.23;;
3278;SDS011;1651;50.940;6.888;2023-07-13T15:53:45;2.33;;;1.70;;
3278;SDS011;1651;50.940;6.888;2023-07-13T15:56:23;2.40;;;1.40;;
3278;SDS011;1651;50.940;6.888;2023-07-13T15:58:50;3.93;;;1.30;;
3278;SDS011;1651;50.940;6.888;2023-07-13T16:01:17;5.43;;;1.67;;
3278;SDS011;1651;50.940;6.888;2023-07-13T16:03:44;7.33;;;1.63;;
3278;SDS011;1651;50.940;6.888;2023-07-13T16:06:12;4.63;;;2.00;;
3278;SDS011;1651;50.940;6.888;2023-07-13T16:08:38;12.30;;;2.40;;
3278;SDS011;1651;50.940;6.888;2023-07-13T16:11:05;5.27;;;1.70;;
3278;SDS011;1651;50.940;6.888;2023-07-13T16:13:33;7.33;;;2.80;;
3278;SDS011;1651;50.940;6.888;2023-07-13T16:15:59;7.83;;;2.60;;